createdAt,value
2018-03-20T00:00:50.977Z,0.00
2018-03-20T00:02:44.400Z,0.00
2018-03-20T00:03:44.216Z,0.00
2018-03-20T00:05:37.509Z,0.00
2018-03-20T00:06:37.460Z,0.00
2018-03-20T00:08:30.783Z,0.00
2018-03-20T00:09:30.714Z,0.00
2018-03-20T00:11:24.075Z,0.00
2018-03-20T00:12:24.038Z,0.00
2018-03-20T00:14:17.472Z,0.00
2018-03-20T00:15:17.400Z,0.00
2018-03-20T00:17:10.704Z,0.00
2018-03-20T00:18:10.665Z,0.00
2018-03-20T00:20:03.971Z,0.00
2018-03-20T00:21:03.899Z,0.00
2018-03-20T00:22:57.193Z,0.00
2018-03-20T00:23:57.148Z,0.00
2018-03-20T00:25:50.459Z,0.00
2018-03-20T00:26:50.400Z,0.00
2018-03-20T00:28:43.722Z,0.00
2018-03-20T00:29:43.652Z,0.00
2018-03-20T00:31:37.014Z,0.00
2018-03-20T00:32:36.970Z,0.00
2018-03-20T00:34:30.274Z,0.00
2018-03-20T00:35:30.315Z,0.00
2018-03-20T00:37:23.535Z,0.00
2018-03-20T00:38:23.462Z,0.00
2018-03-20T00:40:16.764Z,0.00
2018-03-20T00:41:16.700Z,0.00
2018-03-20T00:43:09.999Z,0.00
2018-03-20T00:44:09.948Z,0.00
2018-03-20T00:46:03.266Z,0.00
2018-03-20T00:47:03.186Z,0.00
2018-03-20T00:48:56.471Z,0.00
2018-03-20T00:49:56.428Z,0.00
2018-03-20T00:51:49.736Z,0.00
2018-03-20T00:52:49.674Z,0.00
2018-03-20T00:54:42.984Z,0.00
2018-03-20T00:55:42.920Z,0.00
2018-03-20T00:57:36.210Z,0.00
2018-03-20T00:58:36.229Z,0.00
2018-03-20T01:00:29.471Z,0.00
2018-03-20T01:01:29.403Z,0.00
2018-03-20T01:03:22.689Z,0.00
2018-03-20T01:04:22.641Z,0.00
2018-03-20T01:06:15.955Z,0.00
2018-03-20T01:07:15.893Z,0.00
2018-03-20T01:09:09.222Z,0.00
2018-03-20T01:10:09.140Z,0.00
2018-03-20T01:12:02.449Z,0.00
2018-03-20T01:13:02.374Z,0.00
2018-03-20T01:14:55.655Z,0.00
2018-03-20T01:15:55.627Z,0.00
2018-03-20T01:17:49.074Z,0.00
2018-03-20T01:18:48.898Z,0.00
2018-03-20T01:20:42.205Z,0.00
2018-03-20T01:21:42.141Z,0.00
2018-03-20T01:23:35.440Z,0.00
2018-03-20T01:24:35.389Z,0.00
2018-03-20T01:26:28.766Z,0.00
2018-03-20T01:27:28.682Z,0.00
2018-03-20T01:29:21.978Z,0.00
2018-03-20T01:30:21.933Z,0.00
2018-03-20T01:32:15.227Z,0.00
2018-03-20T01:33:15.165Z,0.00
2018-03-20T01:35:08.442Z,0.00
2018-03-20T01:36:08.402Z,0.00
2018-03-20T01:38:01.732Z,0.00
2018-03-20T01:39:01.652Z,0.00
2018-03-20T01:40:54.953Z,0.00
2018-03-20T01:41:54.904Z,0.00
2018-03-20T01:43:48.217Z,0.00
2018-03-20T01:44:48.136Z,0.00
2018-03-20T01:46:41.497Z,0.00
2018-03-20T01:47:41.417Z,0.00
2018-03-20T01:49:34.830Z,0.00
2018-03-20T01:50:34.668Z,0.00
2018-03-20T01:52:27.951Z,0.00
2018-03-20T01:53:27.896Z,0.00
2018-03-20T01:55:21.186Z,0.00
2018-03-20T01:56:21.149Z,0.00
2018-03-20T01:58:14.456Z,0.00
2018-03-20T01:59:14.384Z,0.00
2018-03-20T02:01:07.666Z,0.00
2018-03-20T02:02:07.620Z,0.00
2018-03-20T02:04:00.924Z,0.00
2018-03-20T02:05:00.866Z,0.00
2018-03-20T02:06:54.455Z,0.00
2018-03-20T02:07:54.268Z,0.00
2018-03-20T02:09:47.572Z,0.00
2018-03-20T02:10:47.519Z,0.00
2018-03-20T02:12:40.909Z,0.00
2018-03-20T02:13:40.751Z,0.00
2018-03-20T02:15:34.104Z,0.00
2018-03-20T02:16:34.030Z,0.00
2018-03-20T02:18:27.358Z,0.00
2018-03-20T02:19:27.321Z,0.00
2018-03-20T02:21:20.591Z,0.00
2018-03-20T02:22:20.536Z,0.00
2018-03-20T02:24:13.842Z,0.00
2018-03-20T02:25:13.772Z,0.00
2018-03-20T02:27:07.059Z,0.00
2018-03-20T02:28:07.022Z,0.00
2018-03-20T02:30:00.336Z,0.00
2018-03-20T02:31:00.265Z,0.00
2018-03-20T02:32:53.551Z,0.00
2018-03-20T02:33:53.502Z,0.00
2018-03-20T02:35:46.812Z,0.00
2018-03-20T02:36:46.747Z,0.00
2018-03-20T02:38:40.157Z,0.00
2018-03-20T02:39:40.008Z,0.00
2018-03-20T02:41:33.308Z,0.00
2018-03-20T02:42:33.238Z,0.00
2018-03-20T02:44:26.557Z,0.00
2018-03-20T02:45:26.491Z,0.00
2018-03-20T02:47:19.782Z,0.00
2018-03-20T02:48:19.756Z,0.00
2018-03-20T02:50:13.055Z,0.00
2018-03-20T02:51:12.987Z,0.00
2018-03-20T02:53:06.265Z,0.00
2018-03-20T02:54:06.221Z,0.00
2018-03-20T02:55:59.529Z,0.00
2018-03-20T02:56:59.476Z,0.00
2018-03-20T02:58:52.743Z,0.00
2018-03-20T02:59:52.693Z,0.00
2018-03-20T03:01:46.093Z,0.00
2018-03-20T03:02:45.943Z,0.00
2018-03-20T03:04:39.227Z,0.00
2018-03-20T03:05:39.187Z,0.00
2018-03-20T03:07:32.488Z,0.00
2018-03-20T03:08:32.428Z,0.00
2018-03-20T03:10:25.737Z,0.00
2018-03-20T03:11:25.663Z,0.00
2018-03-20T03:13:18.964Z,0.00
2018-03-20T03:14:18.914Z,0.00
2018-03-20T03:16:12.336Z,0.00
2018-03-20T03:17:12.156Z,0.00
2018-03-20T03:19:05.459Z,0.00
2018-03-20T03:20:05.393Z,0.00
2018-03-20T03:21:58.724Z,0.00
2018-03-20T03:22:58.648Z,0.00
2018-03-20T03:24:51.940Z,0.00
2018-03-20T03:25:51.888Z,0.00
2018-03-20T03:27:45.199Z,0.00
2018-03-20T03:28:45.138Z,0.00
2018-03-20T03:30:38.423Z,0.00
2018-03-20T03:31:38.382Z,0.00
2018-03-20T03:33:31.794Z,0.00
2018-03-20T03:34:31.618Z,0.00
2018-03-20T03:36:24.952Z,0.00
2018-03-20T03:37:24.886Z,0.00
2018-03-20T03:39:18.192Z,0.00
2018-03-20T03:40:18.132Z,0.00
2018-03-20T03:42:11.488Z,0.00
2018-03-20T03:43:11.411Z,0.00
2018-03-20T03:45:04.708Z,0.00
2018-03-20T03:46:05.728Z,0.00
2018-03-20T03:47:57.961Z,0.00
2018-03-20T03:48:57.904Z,0.00
2018-03-20T03:50:51.209Z,0.00
2018-03-20T03:51:51.147Z,0.00
2018-03-20T03:53:44.457Z,0.00
2018-03-20T03:54:44.392Z,0.00
2018-03-20T03:56:37.724Z,0.00
2018-03-20T03:57:37.653Z,0.00
2018-03-20T03:59:30.940Z,0.00
2018-03-20T04:00:30.879Z,0.00
2018-03-20T04:02:24.233Z,0.00
2018-03-20T04:03:24.138Z,0.00
2018-03-20T04:05:17.431Z,0.00
2018-03-20T04:06:17.382Z,0.00
2018-03-20T04:08:10.721Z,0.00
2018-03-20T04:09:10.641Z,0.00
2018-03-20T04:11:03.947Z,0.00
2018-03-20T04:12:03.891Z,0.00
2018-03-20T04:13:57.185Z,0.00
2018-03-20T04:14:57.138Z,0.00
2018-03-20T04:16:50.438Z,0.00
2018-03-20T04:17:50.408Z,0.00
2018-03-20T04:19:43.689Z,0.00
2018-03-20T04:20:43.623Z,0.00
2018-03-20T04:22:36.940Z,0.00
2018-03-20T04:23:36.900Z,0.00
2018-03-20T04:25:30.199Z,0.00
2018-03-20T04:26:30.144Z,0.00
2018-03-20T04:28:23.487Z,0.00
2018-03-20T04:29:23.399Z,0.00
2018-03-20T04:31:16.688Z,0.00
2018-03-20T04:32:16.659Z,0.00
2018-03-20T04:34:09.969Z,0.00
2018-03-20T04:35:09.908Z,0.00
2018-03-20T04:37:04.245Z,0.00
2018-03-20T04:38:04.165Z,0.00
2018-03-20T04:39:57.491Z,0.00
2018-03-20T04:40:57.418Z,0.00
2018-03-20T04:42:50.709Z,0.00
2018-03-20T04:43:50.660Z,0.00
2018-03-20T04:45:44.069Z,0.00
2018-03-20T04:46:43.912Z,0.00
2018-03-20T04:48:37.204Z,0.00
2018-03-20T04:49:37.170Z,0.00
2018-03-20T04:51:30.471Z,0.00
2018-03-20T04:52:30.414Z,0.00
2018-03-20T04:54:23.828Z,0.00
2018-03-20T04:55:23.696Z,0.00
2018-03-20T04:57:17.009Z,0.00
2018-03-20T04:58:16.939Z,0.00
2018-03-20T05:00:10.274Z,0.00
2018-03-20T05:01:10.208Z,0.00
2018-03-20T05:03:03.510Z,0.00
2018-03-20T05:04:03.463Z,0.00
2018-03-20T05:05:56.777Z,0.00
2018-03-20T05:06:56.719Z,0.00
2018-03-20T05:08:50.013Z,0.00
2018-03-20T05:09:49.978Z,0.00
2018-03-20T05:11:43.361Z,0.00
2018-03-20T05:12:43.293Z,0.00
2018-03-20T05:14:36.615Z,4.00
2018-03-20T05:15:36.574Z,0.00
2018-03-20T05:17:29.876Z,0.00
2018-03-20T05:18:29.823Z,4.00
2018-03-20T05:20:23.203Z,4.00
2018-03-20T05:21:23.170Z,4.00
2018-03-20T05:23:16.492Z,4.00
2018-03-20T05:24:16.442Z,8.00
2018-03-20T05:26:09.715Z,12.00
2018-03-20T05:27:09.673Z,8.00
2018-03-20T05:29:02.984Z,16.00
2018-03-20T05:30:02.929Z,16.00
2018-03-20T05:31:56.219Z,20.00
2018-03-20T05:32:56.175Z,24.00
2018-03-20T05:34:50.103Z,20.00
2018-03-20T05:35:49.419Z,20.00
2018-03-20T05:37:42.742Z,24.00
2018-03-20T05:38:42.684Z,24.00
2018-03-20T05:40:35.970Z,28.00
2018-03-20T05:41:35.928Z,28.00
2018-03-20T05:43:29.319Z,40.00
2018-03-20T05:44:29.202Z,44.00
2018-03-20T05:46:22.480Z,48.00
2018-03-20T05:47:22.419Z,52.00
2018-03-20T05:49:15.334Z,76.00
2018-03-20T05:50:15.271Z,100.00
2018-03-20T05:52:08.571Z,124.00
2018-03-20T05:53:08.516Z,124.00
2018-03-20T05:55:01.849Z,108.00
2018-03-20T05:56:01.790Z,108.00
2018-03-20T05:57:55.089Z,112.00
2018-03-20T05:58:55.041Z,120.00
2018-03-20T06:00:48.348Z,136.00
2018-03-20T06:01:48.391Z,140.00
2018-03-20T06:03:41.603Z,132.00
2018-03-20T06:04:41.534Z,116.00
2018-03-20T06:06:34.959Z,108.00
2018-03-20T06:07:34.912Z,112.00
2018-03-20T06:09:28.210Z,128.00
2018-03-20T06:10:28.204Z,144.00
2018-03-20T06:12:21.457Z,156.00
2018-03-20T06:13:21.406Z,160.00
2018-03-20T06:15:14.727Z,168.00
2018-03-20T06:16:14.668Z,176.00
2018-03-20T06:18:07.956Z,196.00
2018-03-20T06:19:07.960Z,220.00
2018-03-20T06:21:01.335Z,240.00
2018-03-20T06:22:01.164Z,220.00
2018-03-20T06:23:55.462Z,240.00
2018-03-20T06:24:55.395Z,248.00
2018-03-20T06:26:48.701Z,272.00
2018-03-20T06:27:48.648Z,288.00
2018-03-20T06:29:42.047Z,312.00
2018-03-20T06:30:41.891Z,328.00
2018-03-20T06:32:35.200Z,324.00
2018-03-20T06:33:35.140Z,324.00
2018-03-20T06:35:28.461Z,380.00
2018-03-20T06:36:28.392Z,408.00
2018-03-20T06:38:21.890Z,420.00
2018-03-20T06:39:21.669Z,460.00
2018-03-20T06:41:15.001Z,520.00
2018-03-20T06:42:14.945Z,508.00
2018-03-20T06:44:08.285Z,496.00
2018-03-20T06:45:08.200Z,564.00
2018-03-20T06:47:01.639Z,708.00
2018-03-20T06:48:01.450Z,692.00
2018-03-20T06:49:54.763Z,608.00
2018-03-20T06:50:54.770Z,584.00
2018-03-20T06:52:48.040Z,556.00
2018-03-20T06:53:47.947Z,568.00
2018-03-20T06:55:41.505Z,588.00
2018-03-20T06:56:41.336Z,632.00
2018-03-20T06:58:34.653Z,612.00
2018-03-20T06:59:34.638Z,576.00
2018-03-20T07:01:27.936Z,520.00
2018-03-20T07:02:27.867Z,484.00
2018-03-20T07:04:21.170Z,496.00
2018-03-20T07:05:21.122Z,564.00
2018-03-20T07:07:14.451Z,920.00
2018-03-20T07:08:14.393Z,1064.00
2018-03-20T07:10:07.703Z,1140.00
2018-03-20T07:11:07.648Z,1232.00
2018-03-20T07:13:00.975Z,1264.00
2018-03-20T07:14:00.896Z,1116.00
2018-03-20T07:15:54.212Z,856.00
2018-03-20T07:16:54.143Z,800.00
2018-03-20T07:18:47.446Z,816.00
2018-03-20T07:19:47.412Z,860.00
2018-03-20T07:21:40.710Z,1048.00
2018-03-20T07:22:40.637Z,1132.00
2018-03-20T07:24:33.927Z,1100.00
2018-03-20T07:25:33.881Z,1100.00
2018-03-20T07:27:26.838Z,968.00
2018-03-20T07:28:26.865Z,1000.00
2018-03-20T07:30:20.115Z,1200.00
2018-03-20T07:31:20.035Z,1212.00
2018-03-20T07:33:13.451Z,1228.00
2018-03-20T07:34:13.275Z,1152.00
2018-03-20T07:36:06.583Z,1212.00
2018-03-20T07:37:06.547Z,1112.00
2018-03-20T07:38:59.848Z,1264.00
2018-03-20T07:39:59.790Z,1496.00
2018-03-20T07:41:53.283Z,1868.00
2018-03-20T07:42:53.131Z,2008.00
2018-03-20T07:44:46.441Z,2256.00
2018-03-20T07:45:46.427Z,2296.00
2018-03-20T07:47:39.741Z,2364.00
2018-03-20T07:48:39.637Z,2536.00
2018-03-20T07:50:32.962Z,2596.00
2018-03-20T07:51:32.917Z,2816.00
2018-03-20T07:53:26.262Z,2576.00
2018-03-20T07:54:26.182Z,2656.00
2018-03-20T07:56:19.472Z,2728.00
2018-03-20T07:57:19.468Z,2880.00
2018-03-20T07:59:12.749Z,3208.00
2018-03-20T08:00:12.678Z,3600.00
2018-03-20T08:02:06.983Z,4504.00
2018-03-20T08:03:06.950Z,4944.00
2018-03-20T08:05:00.254Z,3256.00
2018-03-20T08:06:00.201Z,3480.00
2018-03-20T08:07:53.502Z,2740.00
2018-03-20T08:08:53.434Z,2820.00
2018-03-20T08:10:46.467Z,3464.00
2018-03-20T08:11:46.351Z,3512.00
2018-03-20T08:13:39.780Z,3976.00
2018-03-20T08:14:39.734Z,3840.00
2018-03-20T08:16:33.596Z,4352.00
2018-03-20T08:17:32.958Z,4608.00
2018-03-20T08:19:26.417Z,5380.00
2018-03-20T08:20:26.361Z,6156.00
2018-03-20T08:22:19.303Z,5216.00
2018-03-20T08:23:19.314Z,4860.00
2018-03-20T08:25:12.597Z,5188.00
2018-03-20T08:26:12.368Z,5272.00
2018-03-20T08:28:05.697Z,5076.00
2018-03-20T08:29:05.637Z,4580.00
2018-03-20T08:30:58.977Z,4680.00
2018-03-20T08:31:58.921Z,4268.00
2018-03-20T08:33:51.907Z,2972.00
2018-03-20T08:34:51.847Z,3148.00
2018-03-20T08:36:45.178Z,2644.00
2018-03-20T08:37:45.166Z,2616.00
2018-03-20T08:39:38.604Z,3064.00
2018-03-20T08:40:38.450Z,3084.00
2018-03-20T08:42:31.357Z,3344.00
2018-03-20T08:43:31.284Z,3564.00
2018-03-20T08:45:24.258Z,5332.00
2018-03-20T08:46:24.189Z,4868.00
2018-03-20T08:48:17.343Z,3984.00
2018-03-20T08:49:17.268Z,3648.00
2018-03-20T08:51:10.266Z,3136.00
2018-03-20T08:52:10.168Z,2912.00
2018-03-20T08:54:03.134Z,2496.00
2018-03-20T08:55:03.077Z,2404.00
2018-03-20T08:56:56.268Z,2648.00
2018-03-20T08:57:56.154Z,2264.00
2018-03-20T08:59:49.450Z,1996.00
2018-03-20T09:00:49.416Z,2376.00
2018-03-20T09:02:42.319Z,2276.00
2018-03-20T09:03:42.259Z,2164.00
2018-03-20T09:05:35.059Z,1976.00
2018-03-20T09:06:35.002Z,2428.00
2018-03-20T09:08:28.313Z,2456.00
2018-03-20T09:09:28.255Z,2804.00
2018-03-20T09:11:21.117Z,2552.00
2018-03-20T09:12:21.043Z,2992.00
2018-03-20T09:14:14.333Z,3568.00
2018-03-20T09:15:14.424Z,3600.00
2018-03-20T09:17:07.395Z,3604.00
2018-03-20T09:18:07.345Z,3728.00
2018-03-20T09:20:00.624Z,3908.00
2018-03-20T09:21:00.624Z,3972.00
2018-03-20T09:22:53.899Z,4528.00
2018-03-20T09:23:53.832Z,4572.00
2018-03-20T09:25:47.138Z,5664.00
2018-03-20T09:26:47.116Z,6084.00
2018-03-20T09:28:40.398Z,7640.00
2018-03-20T09:29:40.339Z,7504.00
2018-03-20T09:31:33.656Z,9540.00
2018-03-20T09:32:33.608Z,7020.00
2018-03-20T09:34:27.024Z,9876.00
2018-03-20T09:35:26.856Z,7820.00
2018-03-20T09:37:20.153Z,8184.00
2018-03-20T09:38:20.098Z,8576.00
2018-03-20T09:40:13.058Z,6484.00
2018-03-20T09:41:13.023Z,6428.00
2018-03-20T09:43:05.790Z,7896.00
2018-03-20T09:44:05.763Z,8104.00
2018-03-20T09:45:58.662Z,15252.00
2018-03-20T09:46:58.544Z,16780.00
2018-03-20T09:48:51.522Z,14332.00
2018-03-20T09:49:51.450Z,12944.00
2018-03-20T09:51:44.748Z,14480.00
2018-03-20T09:52:44.706Z,15124.00
2018-03-20T09:54:37.625Z,16280.00
2018-03-20T09:55:37.469Z,18368.00
2018-03-20T09:57:30.425Z,13564.00
2018-03-20T09:58:30.380Z,14024.00
2018-03-20T10:00:23.354Z,17208.00
2018-03-20T10:01:23.299Z,17884.00
2018-03-20T10:03:16.195Z,16448.00
2018-03-20T10:04:16.160Z,17920.00
2018-03-20T10:06:09.110Z,73344.00
2018-03-20T10:07:08.939Z,68672.00
2018-03-20T10:09:02.245Z,14444.00
2018-03-20T10:10:02.180Z,11504.00
2018-03-20T10:11:55.479Z,10696.00
2018-03-20T10:12:55.459Z,98176.00
2018-03-20T10:14:48.274Z,10308.00
2018-03-20T10:15:48.220Z,8912.00
2018-03-20T10:17:41.511Z,20736.00
2018-03-20T10:18:41.494Z,104640.00
2018-03-20T10:20:34.950Z,9256.00
2018-03-20T10:21:34.885Z,17260.00
2018-03-20T10:23:28.042Z,84288.00
2018-03-20T10:24:27.805Z,97376.00
2018-03-20T10:26:20.780Z,101184.00
2018-03-20T10:27:20.740Z,102272.00
2018-03-20T10:29:13.969Z,39296.00
2018-03-20T10:30:13.878Z,94496.00
2018-03-20T10:32:07.217Z,15844.00
2018-03-20T10:33:07.102Z,16020.00
2018-03-20T10:34:59.969Z,16348.00
2018-03-20T10:35:59.890Z,93536.00
2018-03-20T10:37:53.194Z,86688.00
2018-03-20T10:38:53.205Z,76544.00
2018-03-20T10:40:46.537Z,11464.00
2018-03-20T10:41:46.431Z,46688.00
2018-03-20T10:43:39.772Z,16016.00
2018-03-20T10:44:39.719Z,9028.00
2018-03-20T10:46:33.070Z,32608.00
2018-03-20T10:47:32.995Z,45600.00
2018-03-20T10:49:26.311Z,11436.00
2018-03-20T10:50:26.277Z,11548.00
2018-03-20T10:52:19.727Z,14780.00
2018-03-20T10:53:19.600Z,9584.00
2018-03-20T10:55:12.532Z,42784.00
2018-03-20T10:56:12.506Z,44064.00
2018-03-20T10:58:05.358Z,44480.00
2018-03-20T10:59:05.280Z,23232.00
2018-03-20T11:00:58.910Z,49728.00
2018-03-20T11:01:58.588Z,14772.00
2018-03-20T11:03:51.901Z,47552.00
2018-03-20T11:04:51.850Z,46880.00
2018-03-20T11:06:45.181Z,44768.00
2018-03-20T11:07:45.137Z,45120.00
2018-03-20T11:09:38.459Z,48160.00
2018-03-20T11:10:38.422Z,45664.00
2018-03-20T11:12:31.767Z,48608.00
2018-03-20T11:13:31.710Z,47104.00
2018-03-20T11:15:25.041Z,47328.00
2018-03-20T11:16:25.006Z,46688.00
2018-03-20T11:18:18.391Z,45664.00
2018-03-20T11:19:18.304Z,46816.00
2018-03-20T11:21:11.611Z,48736.00
2018-03-20T11:22:11.600Z,46272.00
2018-03-20T11:24:04.943Z,45696.00
2018-03-20T11:25:04.895Z,45472.00
2018-03-20T11:26:58.242Z,44352.00
2018-03-20T11:27:58.176Z,45568.00
2018-03-20T11:29:51.513Z,44896.00
2018-03-20T11:30:51.478Z,44608.00
2018-03-20T11:32:44.925Z,45056.00
2018-03-20T11:33:44.780Z,44992.00
2018-03-20T11:35:38.091Z,44672.00
2018-03-20T11:36:38.086Z,44288.00
2018-03-20T11:38:31.603Z,44992.00
2018-03-20T11:39:31.429Z,44544.00
2018-03-20T11:41:24.756Z,43808.00
2018-03-20T11:42:24.721Z,43968.00
2018-03-20T11:44:18.072Z,43712.00
2018-03-20T11:45:18.033Z,43744.00
2018-03-20T11:47:11.495Z,44352.00
2018-03-20T11:48:11.325Z,44544.00
2018-03-20T11:50:04.670Z,44128.00
2018-03-20T11:51:04.612Z,44288.00
2018-03-20T11:52:58.031Z,46176.00
2018-03-20T11:53:57.905Z,46528.00
2018-03-20T11:55:51.345Z,52608.00
2018-03-20T11:56:51.211Z,55072.00
2018-03-20T11:58:44.537Z,60800.00
2018-03-20T11:59:44.513Z,45888.00
2018-03-20T12:01:37.807Z,68224.00
2018-03-20T12:02:37.802Z,67456.00
2018-03-20T12:04:31.171Z,62080.00
2018-03-20T12:05:31.068Z,54656.00
2018-03-20T12:07:24.387Z,44672.00
2018-03-20T12:08:24.357Z,35168.00
2018-03-20T12:10:17.702Z,29152.00
2018-03-20T12:11:17.646Z,29824.00
2018-03-20T12:13:10.968Z,26720.00
2018-03-20T12:14:10.928Z,25984.00
2018-03-20T12:16:04.268Z,25344.00
2018-03-20T12:17:04.243Z,25056.00
2018-03-20T12:18:57.552Z,24128.00
2018-03-20T12:19:57.528Z,23840.00
2018-03-20T12:21:50.884Z,23616.00
2018-03-20T12:22:50.804Z,23552.00
2018-03-20T12:24:44.207Z,23520.00
2018-03-20T12:25:44.198Z,24416.00
2018-03-20T12:27:37.534Z,28832.00
2018-03-20T12:28:37.481Z,30784.00
2018-03-20T12:30:30.817Z,33472.00
2018-03-20T12:31:30.754Z,33440.00
2018-03-20T12:33:24.220Z,35296.00
2018-03-20T12:34:24.091Z,36032.00
2018-03-20T12:36:17.412Z,37760.00
2018-03-20T12:37:17.373Z,38144.00
2018-03-20T12:39:10.732Z,38272.00
2018-03-20T12:40:10.673Z,37440.00
2018-03-20T12:42:04.111Z,35616.00
2018-03-20T12:43:03.967Z,34816.00
2018-03-20T12:44:57.278Z,35712.00
2018-03-20T12:45:57.246Z,34304.00
2018-03-20T12:47:50.588Z,33408.00
2018-03-20T12:48:50.539Z,32992.00
2018-03-20T12:50:43.892Z,31616.00
2018-03-20T12:51:43.835Z,30848.00
2018-03-20T12:53:37.171Z,34272.00
2018-03-20T12:54:37.153Z,35328.00
2018-03-20T12:56:30.442Z,36736.00
2018-03-20T12:57:30.400Z,37696.00
2018-03-20T12:59:23.768Z,33888.00
2018-03-20T13:00:23.697Z,31392.00
2018-03-20T13:02:17.041Z,30304.00
2018-03-20T13:03:16.993Z,16072.00
2018-03-20T13:05:10.313Z,30752.00
2018-03-20T13:06:10.283Z,22976.00
2018-03-20T13:08:03.614Z,29824.00
2018-03-20T13:09:03.565Z,29856.00
2018-03-20T13:10:56.873Z,29152.00
2018-03-20T13:11:56.839Z,29504.00
2018-03-20T13:13:50.195Z,31808.00
2018-03-20T13:14:50.137Z,32512.00
2018-03-20T13:16:43.458Z,30272.00
2018-03-20T13:17:43.418Z,31904.00
2018-03-20T13:19:36.852Z,32000.00
2018-03-20T13:20:36.795Z,32704.00
2018-03-20T13:22:30.109Z,33312.00
2018-03-20T13:23:30.092Z,27488.00
2018-03-20T13:25:23.405Z,30080.00
2018-03-20T13:26:23.368Z,31808.00
2018-03-20T13:28:16.795Z,33728.00
2018-03-20T13:29:16.723Z,33344.00
2018-03-20T13:31:10.027Z,32960.00
2018-03-20T13:32:09.974Z,30496.00
2018-03-20T13:34:03.325Z,30080.00
2018-03-20T13:35:03.263Z,28928.00
2018-03-20T13:36:56.662Z,28160.00
2018-03-20T13:37:56.565Z,26368.00
2018-03-20T13:39:49.921Z,26112.00
2018-03-20T13:40:49.832Z,25472.00
2018-03-20T13:42:43.180Z,24160.00
2018-03-20T13:43:43.161Z,9304.00
2018-03-20T13:45:36.499Z,26400.00
2018-03-20T13:46:36.412Z,26496.00
2018-03-20T13:48:29.749Z,15592.00
2018-03-20T13:49:29.704Z,32960.00
2018-03-20T13:51:23.034Z,35456.00
2018-03-20T13:52:22.988Z,39648.00
2018-03-20T13:54:16.309Z,49376.00
2018-03-20T13:55:16.295Z,46016.00
2018-03-20T13:57:09.603Z,35136.00
2018-03-20T13:58:09.549Z,31232.00
2018-03-20T14:00:02.940Z,24672.00
2018-03-20T14:01:02.868Z,21152.00
2018-03-20T14:02:56.149Z,17536.00
2018-03-20T14:03:56.108Z,16152.00
2018-03-20T14:05:49.455Z,14692.00
2018-03-20T14:06:49.400Z,14352.00
2018-03-20T14:08:42.719Z,14112.00
2018-03-20T14:09:42.686Z,14016.00
2018-03-20T14:11:36.010Z,13512.00
2018-03-20T14:12:35.961Z,13364.00
2018-03-20T14:14:29.546Z,13296.00
2018-03-20T14:15:29.386Z,13216.00
2018-03-20T14:17:22.718Z,9176.00
2018-03-20T14:18:22.658Z,12720.00
2018-03-20T14:20:15.993Z,12812.00
2018-03-20T14:21:15.938Z,12480.00
2018-03-20T14:23:09.399Z,12548.00
2018-03-20T14:24:09.298Z,12248.00
2018-03-20T14:26:02.663Z,11540.00
2018-03-20T14:27:02.572Z,11348.00
2018-03-20T14:28:55.896Z,11100.00
2018-03-20T14:29:55.842Z,11012.00
2018-03-20T14:31:49.310Z,10908.00
2018-03-20T14:32:49.124Z,10820.00
2018-03-20T14:34:42.457Z,10800.00
2018-03-20T14:35:42.406Z,10736.00
2018-03-20T14:37:35.739Z,10512.00
2018-03-20T14:38:35.688Z,10568.00
2018-03-20T14:40:29.068Z,10424.00
2018-03-20T14:41:29.020Z,10480.00
2018-03-20T14:43:22.328Z,10632.00
2018-03-20T14:44:22.292Z,10592.00
2018-03-20T14:46:15.607Z,10312.00
2018-03-20T14:47:15.580Z,10024.00
2018-03-20T14:49:09.928Z,9720.00
2018-03-20T14:50:09.863Z,9704.00
2018-03-20T14:52:03.320Z,9672.00
2018-03-20T14:53:03.251Z,9656.00
2018-03-20T14:54:56.614Z,9544.00
2018-03-20T14:55:56.539Z,9564.00
2018-03-20T14:57:49.862Z,9444.00
2018-03-20T14:58:49.809Z,9380.00
2018-03-20T15:00:43.124Z,9288.00
2018-03-20T15:01:43.090Z,9120.00
2018-03-20T15:03:36.408Z,9040.00
2018-03-20T15:04:36.357Z,6812.00
2018-03-20T15:06:29.666Z,2700.00
2018-03-20T15:07:29.635Z,5800.00
2018-03-20T15:09:22.972Z,7132.00
2018-03-20T15:10:22.902Z,4660.00
2018-03-20T15:12:16.219Z,5236.00
2018-03-20T15:13:16.199Z,2652.00
2018-03-20T15:15:09.515Z,7940.00
2018-03-20T15:16:09.463Z,2772.00
2018-03-20T15:18:02.762Z,7852.00
2018-03-20T15:19:02.725Z,7876.00
2018-03-20T15:20:55.765Z,7924.00
2018-03-20T15:21:55.695Z,7844.00
2018-03-20T15:23:49.028Z,7768.00
2018-03-20T15:24:48.970Z,7652.00
2018-03-20T15:26:42.283Z,7252.00
2018-03-20T15:27:42.238Z,7260.00
2018-03-20T15:29:35.529Z,3164.00
2018-03-20T15:30:35.497Z,4100.00
2018-03-20T15:32:28.835Z,6268.00
2018-03-20T15:33:28.792Z,6032.00
2018-03-20T15:35:22.104Z,5856.00
2018-03-20T15:36:22.034Z,7724.00
2018-03-20T15:38:15.338Z,7552.00
2018-03-20T15:39:15.305Z,7516.00
2018-03-20T15:41:08.314Z,7452.00
2018-03-20T15:42:08.245Z,7436.00
2018-03-20T15:44:01.545Z,7384.00
2018-03-20T15:45:01.501Z,7332.00
2018-03-20T15:46:54.843Z,7136.00
2018-03-20T15:47:54.791Z,7028.00
2018-03-20T15:49:48.112Z,6956.00
2018-03-20T15:50:48.114Z,6944.00
2018-03-20T15:52:41.396Z,6700.00
2018-03-20T15:53:41.350Z,6936.00
2018-03-20T15:55:34.170Z,6732.00
2018-03-20T15:56:34.103Z,6588.00
2018-03-20T15:58:27.585Z,6432.00
2018-03-20T15:59:27.386Z,6348.00
2018-03-20T16:01:20.686Z,5392.00
2018-03-20T16:02:20.659Z,5700.00
2018-03-20T16:04:13.974Z,3872.00
2018-03-20T16:05:13.939Z,2560.00
2018-03-20T16:07:07.331Z,5788.00
2018-03-20T16:08:07.286Z,5792.00
2018-03-20T16:10:00.628Z,5488.00
2018-03-20T16:11:00.576Z,5504.00
2018-03-20T16:12:53.635Z,4784.00
2018-03-20T16:13:53.570Z,4876.00
2018-03-20T16:15:46.889Z,4968.00
2018-03-20T16:16:46.888Z,4868.00
2018-03-20T16:18:39.848Z,5032.00
2018-03-20T16:19:39.646Z,4936.00
2018-03-20T16:21:33.965Z,4784.00
2018-03-20T16:22:33.899Z,4384.00
2018-03-20T16:24:27.224Z,4584.00
2018-03-20T16:25:27.167Z,4564.00
2018-03-20T16:27:20.613Z,4492.00
2018-03-20T16:28:20.470Z,4472.00
2018-03-20T16:30:13.797Z,4292.00
2018-03-20T16:31:13.736Z,4184.00
2018-03-20T16:33:07.030Z,3924.00
2018-03-20T16:34:07.023Z,3956.00
2018-03-20T16:35:59.981Z,3780.00
2018-03-20T16:36:59.993Z,3760.00
2018-03-20T16:38:53.286Z,3656.00
2018-03-20T16:39:53.197Z,3512.00
2018-03-20T16:41:46.170Z,3336.00
2018-03-20T16:42:46.112Z,3308.00
2018-03-20T16:44:39.435Z,3116.00
2018-03-20T16:45:39.362Z,2960.00
2018-03-20T16:47:32.305Z,2964.00
2018-03-20T16:48:32.330Z,2920.00
2018-03-20T16:50:25.244Z,2780.00
2018-03-20T16:51:25.176Z,2688.00
2018-03-20T16:53:18.497Z,2504.00
2018-03-20T16:54:18.467Z,2532.00
2018-03-20T16:56:11.402Z,2372.00
2018-03-20T16:57:11.362Z,2320.00
2018-03-20T16:59:04.681Z,2192.00
2018-03-20T17:00:04.615Z,2080.00
2018-03-20T17:01:58.119Z,1860.00
2018-03-20T17:02:57.900Z,1700.00
2018-03-20T17:04:50.898Z,1460.00
2018-03-20T17:05:50.803Z,1372.00
2018-03-20T17:07:44.100Z,1236.00
2018-03-20T17:08:44.061Z,1164.00
2018-03-20T17:10:37.006Z,1052.00
2018-03-20T17:11:36.832Z,996.00
2018-03-20T17:13:29.797Z,904.00
2018-03-20T17:14:29.768Z,868.00
2018-03-20T17:16:22.763Z,792.00
2018-03-20T17:17:22.698Z,756.00
2018-03-20T17:19:16.013Z,688.00
2018-03-20T17:20:15.975Z,648.00
2018-03-20T17:22:09.406Z,588.00
2018-03-20T17:23:09.239Z,560.00
2018-03-20T17:25:02.582Z,504.00
2018-03-20T17:26:02.505Z,480.00
2018-03-20T17:27:55.832Z,432.00
2018-03-20T17:28:55.788Z,408.00
2018-03-20T17:30:49.949Z,368.00
2018-03-20T17:31:49.882Z,348.00
2018-03-20T17:33:43.204Z,304.00
2018-03-20T17:34:43.253Z,284.00
2018-03-20T17:36:36.481Z,244.00
2018-03-20T17:37:36.412Z,224.00
2018-03-20T17:39:29.812Z,192.00
2018-03-20T17:40:29.763Z,176.00
2018-03-20T17:42:23.094Z,148.00
2018-03-20T17:43:23.041Z,132.00
2018-03-20T17:45:16.438Z,108.00
2018-03-20T17:46:16.359Z,100.00
2018-03-20T17:48:09.642Z,80.00
2018-03-20T17:49:09.575Z,72.00
2018-03-20T17:51:02.893Z,60.00
2018-03-20T17:52:02.841Z,52.00
2018-03-20T17:53:56.158Z,40.00